Zakirovskiy Airport

Jump to: basic info | weather | comments

Related pages: nearby airports | nearby navaids

Basic information (top)

Location: lon 43.448002, lat 77.049599, elev 2,038 ft / 621 m msl
Status: small_airport

Weather (top)

Current conditions for Almaty Airport 6nm (11km) S (rec'd 2014/10/25 18:00Z):

UAAA 251800Z VRB01MPS 1900 R23R/P2000N R23L/P2000D BR FU SCT100 08/05 Q1016 R88/65D NOSIG

Airport forecast for Almaty Airport 6nm (11km) S (rec'd 2014/10/25 18:18Z):

TAF TAF UAAA 251700Z 2518/2618 16005MPS 3000 BR FU BKN100 TX18/2609Z TN04/2601Z 
      TEMPO 2518/2603 1000 
      BECMG 2604/2605 04005MPS 9999 NSW 
      BECMG 2612/2613 23005MPS 3000 BR FU 
      TEMPO 2613/2618 0700

Latest comments (top)

No comments yet for Zakirovskiy Airport

More... (top)

See also NOTAMs and nearby airports and navaids, or visit the Zakirovskiy Airport page at the main OurAirports website..